Opava, Czech Republic
Current Conditions -  °F | °C
As of 10:00 PM on Friday 24 Oct 2014 (Local Time) from LKMT Reporting Station
Overcast Overcast  
Wind Chill: 30°   Ceiling: 2500
Heat Index: 37°   Visibility: 6mi
Dew Point: 32°   Wind: 12mph
Humidity: 81%   Direction: 60°ENE
Pressure: 30.24"   Gusts: NA
Location:  49.94°N, 17.89°E
Report Text: LKMT 242000Z 06010KT 9999 OVC025 03/M00 Q1024 NOSIG
Loading
Personal Weather Stations






























Interactive Weather Map
Tropical Storm Tracking
New forecast layout! Learn more

10-Day Weather Forecast

Advertisements
Track Severe Weather on mobile